createdAt,value
2023-04-05T00:00:27.916Z,6.80
2023-04-05T00:03:00.315Z,6.15
2023-04-05T00:05:34.282Z,6.82
2023-04-05T00:08:01.934Z,6.47
2023-04-05T00:10:30.238Z,6.82
2023-04-05T00:12:58.067Z,6.90
2023-04-05T00:15:27.521Z,6.63
2023-04-05T00:17:54.879Z,6.53
2023-04-05T00:20:21.811Z,7.00
2023-04-05T00:22:50.614Z,7.10
2023-04-05T00:25:18.468Z,7.23
2023-04-05T00:27:45.442Z,7.13
2023-04-05T00:30:12.651Z,6.95
2023-04-05T00:32:39.518Z,7.00
2023-04-05T00:35:07.381Z,7.32
2023-04-05T00:37:34.415Z,6.53
2023-04-05T00:40:01.348Z,7.32
2023-04-05T00:42:28.407Z,6.78
2023-04-05T00:44:55.798Z,7.10
2023-04-05T00:47:22.824Z,6.97
2023-04-05T00:49:50.696Z,6.67
2023-04-05T00:52:19.534Z,7.28
2023-04-05T00:54:46.490Z,7.07
2023-04-05T00:57:13.976Z,6.85
2023-04-05T00:59:40.988Z,7.50
2023-04-05T01:02:19.333Z,6.77
2023-04-05T01:04:56.616Z,7.38
2023-04-05T01:07:38.241Z,7.00
2023-04-05T01:10:06.434Z,6.78
2023-04-05T01:12:34.183Z,7.80
2023-04-05T01:15:04.094Z,6.90
2023-04-05T01:17:42.629Z,7.70
2023-04-05T01:20:11.810Z,7.22
2023-04-05T01:23:00.378Z,7.20
2023-04-05T01:26:24.096Z,7.03
2023-04-05T01:29:01.084Z,6.77
2023-04-05T01:31:39.619Z,7.10
2023-04-05T01:34:17.154Z,6.78
2023-04-05T01:36:53.437Z,7.00
2023-04-05T01:39:21.435Z,7.70
2023-04-05T01:41:48.219Z,6.77
2023-04-05T01:44:15.273Z,7.38
2023-04-05T01:46:42.311Z,7.30
2023-04-05T01:49:09.277Z,6.90
2023-04-05T01:51:36.554Z,8.15
2023-04-05T01:54:03.359Z,6.80
2023-04-05T01:56:30.207Z,7.07
2023-04-05T01:58:57.230Z,7.80
2023-04-05T02:01:24.876Z,7.05
2023-04-05T02:03:51.935Z,7.40
2023-04-05T02:06:18.923Z,7.20
2023-04-05T02:08:45.835Z,7.07
2023-04-05T02:11:12.772Z,8.00
2023-04-05T02:13:39.684Z,6.85
2023-04-05T02:16:06.635Z,7.60
2023-04-05T02:18:33.571Z,7.23
2023-04-05T02:21:10.672Z,7.43
2023-04-05T02:23:38.300Z,7.20
2023-04-05T02:26:05.756Z,6.63
2023-04-05T02:28:32.652Z,7.18
2023-04-05T02:30:59.486Z,6.60
2023-04-05T02:33:27.656Z,6.63
2023-04-05T02:35:55.539Z,6.90
2023-04-05T02:38:22.442Z,7.03
2023-04-05T02:40:49.643Z,7.60
2023-04-05T02:43:16.625Z,6.60
2023-04-05T02:45:44.997Z,6.63
2023-04-05T02:48:13.787Z,7.05
2023-04-05T02:50:40.899Z,7.07
2023-04-05T02:53:08.194Z,7.00
2023-04-05T02:55:35.139Z,6.57
2023-04-05T02:58:02.366Z,6.28
2023-04-05T03:00:41.007Z,7.63
2023-04-05T03:03:09.491Z,6.85
2023-04-05T03:05:42.447Z,6.50
2023-04-05T03:08:18.528Z,6.17
2023-04-05T03:10:54.309Z,7.18
2023-04-05T03:13:21.237Z,7.38
2023-04-05T03:15:48.643Z,6.88
2023-04-05T03:18:18.046Z,6.75
2023-04-05T03:20:47.244Z,6.47
2023-04-05T03:23:19.230Z,6.85
2023-04-05T03:25:49.324Z,6.63
2023-04-05T03:28:18.394Z,6.55
2023-04-05T03:30:49.057Z,6.65
2023-04-05T03:33:20.650Z,7.00
2023-04-05T03:35:52.582Z,6.22
2023-04-05T03:38:20.518Z,6.50
2023-04-05T03:41:07.391Z,6.47
2023-04-05T03:43:36.134Z,6.20
2023-04-05T03:46:03.094Z,6.20
2023-04-05T03:48:30.465Z,6.60
2023-04-05T03:50:57.383Z,7.07
2023-04-05T03:53:24.304Z,6.50
2023-04-05T03:55:55.733Z,7.18
2023-04-05T03:58:37.770Z,5.93
2023-04-05T04:01:06.760Z,6.35
2023-04-05T04:03:33.686Z,7.22
2023-04-05T04:06:00.623Z,7.28
2023-04-05T04:08:28.396Z,6.55
2023-04-05T04:10:57.818Z,6.60
2023-04-05T04:13:29.135Z,6.50
2023-04-05T04:16:19.353Z,7.25
2023-04-05T04:18:55.788Z,6.82
2023-04-05T04:21:51.609Z,6.45
2023-04-05T04:24:34.681Z,6.20
2023-04-05T04:27:20.829Z,6.18
2023-04-05T04:30:10.773Z,6.10
2023-04-05T04:33:07.462Z,6.25
2023-04-05T04:35:49.641Z,6.65
2023-04-05T04:38:47.340Z,6.27
2023-04-05T04:41:36.047Z,6.50
2023-04-05T04:44:14.820Z,6.50
2023-04-05T04:47:17.506Z,6.00
2023-04-05T04:49:49.068Z,6.55
2023-04-05T04:52:16.201Z,6.57
2023-04-05T04:54:43.325Z,6.55
2023-04-05T04:57:10.452Z,7.15
2023-04-05T04:59:37.386Z,6.72
2023-04-05T05:02:08.174Z,7.18
2023-04-05T05:04:35.045Z,6.70
2023-04-05T05:07:01.853Z,6.80
2023-04-05T05:09:28.670Z,7.20
2023-04-05T05:12:01.387Z,7.38
2023-04-05T05:14:28.312Z,7.40
2023-04-05T05:16:59.060Z,6.90
2023-04-05T05:19:29.057Z,7.97
2023-04-05T05:21:56.315Z,7.15
2023-04-05T05:24:23.439Z,7.18
2023-04-05T05:26:50.996Z,7.55
2023-04-05T05:29:19.981Z,7.50
2023-04-05T05:31:47.169Z,7.13
2023-04-05T05:34:14.042Z,7.50
2023-04-05T05:36:47.534Z,7.45
2023-04-05T05:39:14.296Z,7.38
2023-04-05T05:41:41.130Z,6.80
2023-04-05T05:44:08.025Z,6.95
2023-04-05T05:46:35.022Z,6.95
2023-04-05T05:49:01.906Z,6.85
2023-04-05T05:51:28.705Z,7.05
2023-04-05T05:53:55.780Z,7.07
2023-04-05T05:56:22.602Z,6.72
2023-04-05T05:58:49.651Z,6.05
2023-04-05T06:01:16.436Z,6.75
2023-04-05T06:03:43.402Z,6.80
2023-04-05T06:06:11.208Z,6.03
2023-04-05T06:08:38.390Z,6.65
2023-04-05T06:11:05.458Z,6.72
2023-04-05T06:13:32.256Z,6.88
2023-04-05T06:16:01.681Z,6.65
2023-04-05T06:18:28.726Z,6.03
2023-04-05T06:20:56.165Z,6.05
2023-04-05T06:23:22.995Z,6.70
2023-04-05T06:25:49.888Z,6.10
2023-04-05T06:28:16.728Z,6.60
2023-04-05T06:30:43.436Z,5.60
2023-04-05T06:33:10.307Z,6.35
2023-04-05T06:35:37.209Z,6.25
2023-04-05T06:38:04.066Z,6.15
2023-04-05T06:40:30.988Z,6.80
2023-04-05T06:42:58.709Z,5.97
2023-04-05T06:45:29.403Z,6.60
2023-04-05T06:47:56.514Z,6.72
2023-04-05T06:50:23.422Z,6.10
2023-04-05T06:52:50.412Z,6.35
2023-04-05T06:55:17.406Z,6.53
2023-04-05T06:57:44.318Z,6.32
2023-04-05T07:00:13.590Z,7.05
2023-04-05T07:02:40.678Z,6.85
2023-04-05T07:05:08.665Z,6.60
2023-04-05T07:07:44.442Z,6.40
2023-04-05T07:10:11.964Z,6.15
2023-04-05T07:12:39.810Z,6.35
2023-04-05T07:15:07.292Z,6.45
2023-04-05T07:17:35.014Z,6.75
2023-04-05T07:20:02.045Z,6.50
2023-04-05T07:22:28.922Z,6.13
2023-04-05T07:24:55.701Z,6.57
2023-04-05T07:27:22.728Z,6.20
2023-04-05T07:29:49.993Z,7.05
2023-04-05T07:32:16.938Z,6.67
2023-04-05T07:34:43.903Z,6.65
2023-04-05T07:37:10.821Z,6.32
2023-04-05T07:39:37.844Z,5.65
2023-04-05T07:42:05.057Z,6.88
2023-04-05T07:44:31.789Z,6.20
2023-04-05T07:46:58.676Z,6.10
2023-04-05T07:49:27.252Z,5.68
2023-04-05T07:51:57.790Z,6.15
2023-04-05T07:54:24.758Z,6.50
2023-04-05T07:56:52.877Z,6.23
2023-04-05T07:59:19.760Z,6.32
2023-04-05T08:01:46.527Z,5.95
2023-04-05T08:04:13.511Z,6.20
2023-04-05T08:06:40.500Z,5.72
2023-04-05T08:09:08.996Z,5.63
2023-04-05T08:11:36.181Z,5.90
2023-04-05T08:14:03.127Z,5.53
2023-04-05T08:16:30.951Z,5.47
2023-04-05T08:18:57.794Z,5.20
2023-04-05T08:21:24.615Z,5.67
2023-04-05T08:23:51.979Z,5.10
2023-04-05T08:26:19.577Z,5.10
2023-04-05T08:28:46.522Z,4.97
2023-04-05T08:31:13.991Z,5.53
2023-04-05T08:33:41.009Z,4.87
2023-04-05T08:36:09.372Z,5.10
2023-04-05T08:38:36.873Z,5.13
2023-04-05T08:41:22.955Z,5.10
2023-04-05T08:43:59.950Z,5.13
2023-04-05T08:46:28.073Z,4.83
2023-04-05T08:48:56.759Z,4.50
2023-04-05T08:51:25.847Z,5.05
2023-04-05T08:53:53.380Z,4.30
2023-04-05T08:56:33.598Z,4.70
2023-04-05T08:59:09.590Z,4.40
2023-04-05T09:01:43.810Z,4.10
2023-04-05T09:04:23.371Z,4.35
2023-04-05T09:06:52.091Z,4.30
2023-04-05T09:09:21.618Z,4.30
2023-04-05T09:11:49.788Z,4.03
2023-04-05T09:14:17.578Z,3.33
2023-04-05T09:16:44.673Z,4.10
2023-04-05T09:19:11.734Z,4.00
2023-04-05T09:21:58.195Z,4.38
2023-04-05T09:24:40.778Z,4.80
2023-04-05T09:27:12.469Z,4.40
2023-04-05T09:29:41.437Z,4.55
2023-04-05T09:32:11.068Z,4.50
2023-04-05T09:34:39.157Z,4.68
2023-04-05T09:37:14.753Z,4.60
2023-04-05T09:39:42.255Z,4.50
2023-04-05T09:42:17.450Z,4.32
2023-04-05T09:45:01.412Z,4.38
2023-04-05T09:47:34.687Z,4.95
2023-04-05T09:50:16.611Z,4.40
2023-04-05T09:52:44.019Z,4.70
2023-04-05T09:55:11.817Z,4.22
2023-04-05T09:57:43.887Z,5.00
2023-04-05T10:00:23.530Z,4.85
2023-04-05T10:02:55.856Z,5.17
2023-04-05T10:05:28.030Z,4.80
2023-04-05T10:07:59.463Z,5.15
2023-04-05T10:10:26.364Z,5.18
2023-04-05T10:12:54.325Z,5.80
2023-04-05T10:15:21.357Z,4.90
2023-04-05T10:18:16.675Z,4.97
2023-04-05T10:20:50.017Z,5.57
2023-04-05T10:23:26.691Z,5.47
2023-04-05T10:25:53.869Z,5.22
2023-04-05T10:28:34.763Z,5.50
2023-04-05T10:31:36.959Z,5.65
2023-04-05T10:34:07.369Z,5.88
2023-04-05T10:37:01.406Z,5.28
2023-04-05T10:39:29.806Z,5.68
2023-04-05T10:42:02.279Z,5.30
2023-04-05T10:44:33.344Z,5.80
2023-04-05T10:47:02.422Z,6.05
2023-04-05T10:49:32.150Z,5.43
2023-04-05T10:51:59.248Z,5.65
2023-04-05T10:54:27.242Z,5.73
2023-04-05T10:56:55.050Z,6.22
2023-04-05T10:59:22.720Z,6.63
2023-04-05T11:01:50.774Z,5.35
2023-04-05T11:04:18.192Z,6.65
2023-04-05T11:06:48.129Z,5.60
2023-04-05T11:09:20.454Z,5.07
2023-04-05T11:11:52.493Z,5.85
2023-04-05T11:14:27.115Z,5.43
2023-04-05T11:16:59.682Z,6.20
2023-04-05T11:19:47.317Z,5.23
2023-04-05T11:22:24.670Z,5.40
2023-04-05T11:24:57.988Z,5.53
2023-04-05T11:27:27.509Z,5.78
2023-04-05T11:29:54.777Z,5.60
2023-04-05T11:32:22.632Z,5.70
2023-04-05T11:35:00.923Z,6.15
2023-04-05T11:37:53.261Z,6.50
2023-04-05T11:40:31.237Z,5.80
2023-04-05T11:43:10.004Z,6.30
2023-04-05T11:45:38.921Z,5.13
2023-04-05T11:48:10.282Z,6.20
2023-04-05T11:50:39.684Z,6.40
2023-04-05T11:53:17.508Z,6.57
2023-04-05T11:55:46.990Z,5.72
2023-04-05T11:58:19.018Z,6.30
2023-04-05T12:00:46.582Z,6.13
2023-04-05T12:03:17.246Z,6.50
2023-04-05T12:05:51.192Z,6.25
2023-04-05T12:08:22.303Z,6.55
2023-04-05T12:11:01.401Z,6.70
2023-04-05T12:13:38.316Z,6.65
2023-04-05T12:16:07.826Z,6.38
2023-04-05T12:18:37.399Z,6.07
2023-04-05T12:21:13.523Z,6.25
2023-04-05T12:23:40.745Z,6.17
2023-04-05T12:26:08.241Z,5.78
2023-04-05T12:28:52.812Z,6.00
2023-04-05T12:31:38.664Z,5.25
2023-04-05T12:34:06.660Z,6.38
2023-04-05T12:36:33.540Z,5.93
2023-04-05T12:39:01.055Z,6.10
2023-04-05T12:41:31.863Z,6.20
2023-04-05T12:44:01.985Z,6.22
2023-04-05T12:46:47.944Z,6.18
2023-04-05T12:49:18.658Z,6.60
2023-04-05T12:51:46.670Z,5.85
2023-04-05T12:54:14.854Z,6.55
2023-04-05T12:56:44.784Z,6.22
2023-04-05T12:59:11.837Z,5.53
2023-04-05T13:01:39.326Z,5.80
2023-04-05T13:04:15.629Z,6.20
2023-04-05T13:06:50.200Z,6.43
2023-04-05T13:09:17.452Z,6.00
2023-04-05T13:11:44.699Z,6.30
2023-04-05T13:14:11.616Z,5.13
2023-04-05T13:16:38.670Z,6.25
2023-04-05T13:19:05.707Z,6.78
2023-04-05T13:21:32.902Z,6.30
2023-04-05T13:23:59.736Z,6.13
2023-04-05T13:26:26.673Z,5.13
2023-04-05T13:28:53.645Z,5.40
2023-04-05T13:31:20.550Z,6.20
2023-04-05T13:33:47.444Z,6.15
2023-04-05T13:36:14.424Z,6.25
2023-04-05T13:38:41.424Z,5.53
2023-04-05T13:41:08.583Z,6.55
2023-04-05T13:43:35.388Z,6.25
2023-04-05T13:46:02.278Z,6.32
2023-04-05T13:48:29.288Z,6.45
2023-04-05T13:50:56.241Z,5.80
2023-04-05T13:53:23.491Z,5.43
2023-04-05T13:55:50.568Z,6.10
2023-04-05T13:58:17.534Z,6.68
2023-04-05T14:00:44.649Z,5.90
2023-04-05T14:03:11.832Z,5.90
2023-04-05T14:05:38.735Z,5.63
2023-04-05T14:08:05.674Z,5.82
2023-04-05T14:10:32.667Z,6.25
2023-04-05T14:12:59.671Z,6.07
2023-04-05T14:15:31.311Z,5.80
2023-04-05T14:17:58.327Z,6.60
2023-04-05T14:20:25.714Z,6.18
2023-04-05T14:22:52.798Z,6.60
2023-04-05T14:25:19.882Z,6.22
2023-04-05T14:27:47.041Z,5.80
2023-04-05T14:30:14.190Z,6.65
2023-04-05T14:32:41.640Z,6.50
2023-04-05T14:35:09.191Z,6.13
2023-04-05T14:37:36.600Z,7.50
2023-04-05T14:40:03.748Z,6.37
2023-04-05T14:42:45.107Z,6.55
2023-04-05T14:45:20.179Z,7.05
2023-04-05T14:47:47.471Z,6.45
2023-04-05T14:50:14.569Z,6.07
2023-04-05T14:52:41.426Z,6.30
2023-04-05T14:55:08.847Z,6.28
2023-04-05T14:57:36.004Z,6.65
2023-04-05T15:00:03.156Z,6.00
2023-04-05T15:02:30.778Z,6.18
2023-04-05T15:05:00.556Z,6.37
2023-04-05T15:07:28.114Z,6.28
2023-04-05T15:09:55.347Z,6.70
2023-04-05T15:12:22.422Z,6.25
2023-04-05T15:14:50.830Z,5.95
2023-04-05T15:17:17.970Z,5.80
2023-04-05T15:19:44.921Z,6.10
2023-04-05T15:22:12.115Z,5.57
2023-04-05T15:24:42.831Z,6.57
2023-04-05T15:27:19.619Z,6.10
2023-04-05T15:29:47.054Z,6.20
2023-04-05T15:32:14.454Z,5.07
2023-04-05T15:34:41.342Z,5.88
2023-04-05T15:37:08.276Z,6.10
2023-04-05T15:39:35.120Z,6.30
2023-04-05T15:42:03.155Z,5.63
2023-04-05T15:44:30.417Z,6.32
2023-04-05T15:46:57.326Z,6.70
2023-04-05T15:49:24.456Z,6.22
2023-04-05T15:51:51.340Z,6.45
2023-04-05T15:54:21.293Z,6.40
2023-04-05T15:56:48.254Z,6.03
2023-04-05T15:59:15.418Z,5.97
2023-04-05T16:01:42.475Z,5.57
2023-04-05T16:04:09.412Z,5.85
2023-04-05T16:06:36.279Z,6.33
2023-04-05T16:09:03.643Z,5.50
2023-04-05T16:11:31.443Z,6.47
2023-04-05T16:14:06.298Z,6.18
2023-04-05T16:16:42.065Z,6.20
2023-04-05T16:19:19.556Z,6.17
2023-04-05T16:21:47.753Z,6.45
2023-04-05T16:24:15.171Z,6.45
2023-04-05T16:26:42.465Z,6.30
2023-04-05T16:29:09.282Z,6.50
2023-04-05T16:31:36.878Z,6.27
2023-04-05T16:34:04.272Z,6.32
2023-04-05T16:36:31.165Z,6.72
2023-04-05T16:38:58.128Z,6.18
2023-04-05T16:41:24.953Z,6.70
2023-04-05T16:43:51.984Z,6.07
2023-04-05T16:46:19.062Z,6.80
2023-04-05T16:48:46.214Z,7.10
2023-04-05T16:51:13.853Z,7.07
2023-04-05T16:53:40.880Z,6.80
2023-04-05T16:56:07.924Z,6.40
2023-04-05T16:58:35.039Z,6.57
2023-04-05T17:01:01.885Z,6.70
2023-04-05T17:03:28.941Z,6.70
2023-04-05T17:05:56.500Z,6.90
2023-04-05T17:08:23.266Z,5.57
2023-04-05T17:10:51.243Z,6.25
2023-04-05T17:13:18.251Z,6.40
2023-04-05T17:15:45.426Z,6.32
2023-04-05T17:18:12.414Z,6.60
2023-04-05T17:20:39.390Z,6.37
2023-04-05T17:23:06.552Z,6.40
2023-04-05T17:25:33.490Z,6.32
2023-04-05T17:28:00.462Z,6.57
2023-04-05T17:30:27.733Z,7.00
2023-04-05T17:32:54.974Z,6.60
2023-04-05T17:35:21.911Z,6.57
2023-04-05T17:37:48.834Z,6.75
2023-04-05T17:40:16.443Z,7.18
2023-04-05T17:42:43.373Z,7.00
2023-04-05T17:45:11.408Z,6.60
2023-04-05T17:47:38.729Z,6.72
2023-04-05T17:50:06.269Z,6.60
2023-04-05T17:52:33.178Z,7.57
2023-04-05T17:55:00.221Z,7.20
2023-04-05T17:57:27.187Z,6.57
2023-04-05T17:59:54.396Z,7.40
2023-04-05T18:02:21.542Z,7.63
2023-04-05T18:04:48.666Z,7.07
2023-04-05T18:07:15.893Z,6.93
2023-04-05T18:09:42.760Z,7.50
2023-04-05T18:12:10.054Z,7.97
2023-04-05T18:14:37.194Z,7.15
2023-04-05T18:17:08.378Z,7.00
2023-04-05T18:19:35.739Z,7.30
2023-04-05T18:22:03.153Z,6.90
2023-04-05T18:24:30.120Z,7.38
2023-04-05T18:26:57.589Z,7.60
2023-04-05T18:29:28.354Z,7.55
2023-04-05T18:31:56.658Z,7.35
2023-04-05T18:34:24.105Z,7.37
2023-04-05T18:36:51.310Z,6.75
2023-04-05T18:39:20.134Z,6.97
2023-04-05T18:41:47.255Z,6.80
2023-04-05T18:44:14.382Z,7.55
2023-04-05T18:46:41.433Z,7.53
2023-04-05T18:49:08.751Z,18.20
2023-04-05T18:51:39.859Z,10.20
2023-04-05T18:54:06.906Z,7.95
2023-04-05T18:56:34.052Z,8.10
2023-04-05T18:59:01.067Z,9.43
2023-04-05T19:01:29.722Z,8.45
2023-04-05T19:03:57.374Z,8.60
2023-04-05T19:06:24.218Z,7.70
2023-04-05T19:08:51.574Z,8.23
2023-04-05T19:11:22.135Z,7.63
2023-04-05T19:13:49.999Z,8.05
2023-04-05T19:16:17.626Z,7.82
2023-04-05T19:18:45.307Z,7.80
2023-04-05T19:21:12.510Z,7.25
2023-04-05T19:23:39.782Z,7.67
2023-04-05T19:26:06.702Z,7.35
2023-04-05T19:28:33.793Z,7.90
2023-04-05T19:31:00.714Z,7.78
2023-04-05T19:33:31.532Z,7.95
2023-04-05T19:35:58.832Z,7.97
2023-04-05T19:38:25.754Z,7.28
2023-04-05T19:40:53.099Z,8.75
2023-04-05T19:43:19.978Z,7.95
2023-04-05T19:45:52.456Z,8.40
2023-04-05T19:48:37.770Z,7.37
2023-04-05T19:51:07.271Z,7.88
2023-04-05T19:53:49.651Z,8.20
2023-04-05T19:56:25.759Z,7.43
2023-04-05T19:59:27.051Z,8.15
2023-04-05T20:01:54.770Z,7.27
2023-04-05T20:04:25.066Z,7.68
2023-04-05T20:06:54.224Z,8.27
2023-04-05T20:09:23.190Z,7.45
2023-04-05T20:11:55.910Z,8.02
2023-04-05T20:14:30.453Z,8.40
2023-04-05T20:16:58.187Z,8.40
2023-04-05T20:19:30.671Z,8.43
2023-04-05T20:22:02.826Z,8.48
2023-04-05T20:24:30.602Z,8.90
2023-04-05T20:26:57.603Z,8.53
2023-04-05T20:29:32.371Z,8.73
2023-04-05T20:32:01.130Z,9.75
2023-04-05T20:34:33.064Z,9.25
2023-04-05T20:37:01.970Z,9.57
2023-04-05T20:39:30.050Z,10.27
2023-04-05T20:41:58.648Z,10.13
2023-04-05T20:44:26.222Z,11.30
2023-04-05T20:46:54.876Z,10.02
2023-04-05T20:49:34.555Z,11.50
2023-04-05T20:52:07.852Z,12.73
2023-04-05T20:54:36.003Z,13.93
2023-04-05T20:57:03.201Z,13.18
2023-04-05T20:59:30.296Z,12.93
2023-04-05T21:01:58.322Z,13.30
2023-04-05T21:04:25.954Z,11.87
2023-04-05T21:06:54.288Z,11.77
2023-04-05T21:09:21.906Z,11.75
2023-04-05T21:11:49.090Z,12.25
2023-04-05T21:14:16.261Z,12.35
2023-04-05T21:16:43.336Z,11.30
2023-04-05T21:19:10.608Z,13.25
2023-04-05T21:21:37.849Z,13.95
2023-04-05T21:24:04.810Z,12.90
2023-04-05T21:26:31.710Z,13.85
2023-04-05T21:28:58.765Z,13.00
2023-04-05T21:31:25.662Z,13.13
2023-04-05T21:33:52.546Z,13.38
2023-04-05T21:36:19.440Z,12.93
2023-04-05T21:38:46.200Z,13.55
2023-04-05T21:41:13.091Z,12.77
2023-04-05T21:43:39.976Z,11.57
2023-04-05T21:46:07.132Z,12.82
2023-04-05T21:48:34.354Z,12.13
2023-04-05T21:51:02.009Z,11.60
2023-04-05T21:53:29.002Z,12.20
2023-04-05T21:55:55.954Z,11.18
2023-04-05T21:58:22.924Z,10.90
2023-04-05T22:00:49.826Z,10.77
2023-04-05T22:03:16.773Z,10.32
2023-04-05T22:05:43.665Z,10.43
2023-04-05T22:08:11.440Z,9.82
2023-04-05T22:10:38.753Z,9.93
2023-04-05T22:13:05.927Z,9.80
2023-04-05T22:15:33.488Z,10.65
2023-04-05T22:18:00.438Z,9.93
2023-04-05T22:20:27.796Z,10.68
2023-04-05T22:22:55.096Z,10.40
2023-04-05T22:25:22.070Z,10.18
2023-04-05T22:27:48.961Z,9.82
2023-04-05T22:30:16.234Z,8.97
2023-04-05T22:32:43.324Z,10.30
2023-04-05T22:35:10.611Z,10.23
2023-04-05T22:37:38.230Z,8.93
2023-04-05T22:40:05.610Z,9.68
2023-04-05T22:42:32.744Z,9.73
2023-04-05T22:44:59.702Z,10.25
2023-04-05T22:47:27.661Z,10.13
2023-04-05T22:49:54.624Z,10.65
2023-04-05T22:52:21.762Z,10.40
2023-04-05T22:54:48.808Z,8.90
2023-04-05T22:57:15.848Z,9.93
2023-04-05T22:59:43.024Z,10.52
2023-04-05T23:02:12.325Z,9.60
2023-04-05T23:04:39.616Z,9.93
2023-04-05T23:07:06.888Z,9.33
2023-04-05T23:09:34.223Z,9.57
2023-04-05T23:12:01.156Z,10.35
2023-04-05T23:14:28.272Z,9.10
2023-04-05T23:16:55.575Z,8.45
2023-04-05T23:19:22.758Z,9.20
2023-04-05T23:21:49.746Z,8.82
2023-04-05T23:24:16.598Z,9.32
2023-04-05T23:26:43.805Z,8.50
2023-04-05T23:29:10.777Z,9.07
2023-04-05T23:31:37.786Z,9.13
2023-04-05T23:34:04.935Z,8.40
2023-04-05T23:36:32.476Z,8.75
2023-04-05T23:39:00.207Z,8.63
2023-04-05T23:41:27.487Z,8.73
2023-04-05T23:43:54.505Z,7.60
2023-04-05T23:46:22.167Z,8.77
2023-04-05T23:48:49.903Z,8.65
2023-04-05T23:51:17.076Z,7.82
2023-04-05T23:53:43.882Z,7.78
2023-04-05T23:56:11.169Z,8.13
2023-04-05T23:58:38.006Z,8.80
